sensor_id;sensor_type;location;lat;lon;timestamp;P1;durP1;ratioP1;P2;durP2;ratioP2
15603;SDS011;7902;49.042;9.092;2023-11-19T00:00:34;15.27;;;3.17;;
15603;SDS011;7902;49.042;9.092;2023-11-19T00:03:01;15.63;;;3.13;;
15603;SDS011;7902;49.042;9.092;2023-11-19T00:05:27;15.17;;;3.60;;
15603;SDS011;7902;49.042;9.092;2023-11-19T00:07:53;14.93;;;3.10;;
15603;SDS011;7902;49.042;9.092;2023-11-19T00:10:19;15.17;;;3.57;;
15603;SDS011;7902;49.042;9.092;2023-11-19T00:12:47;13.37;;;3.30;;
15603;SDS011;7902;49.042;9.092;2023-11-19T00:15:14;12.90;;;3.00;;
15603;SDS011;7902;49.042;9.092;2023-11-19T00:17:41;15.10;;;4.17;;
15603;SDS011;7902;49.042;9.092;2023-11-19T00:20:14;14.50;;;4.17;;
15603;SDS011;7902;49.042;9.092;2023-11-19T00:22:41;14.00;;;3.20;;
15603;SDS011;7902;49.042;9.092;2023-11-19T00:25:08;21.47;;;3.67;;
15603;SDS011;7902;49.042;9.092;2023-11-19T00:27:35;14.80;;;3.50;;
15603;SDS011;7902;49.042;9.092;2023-11-19T00:30:03;19.93;;;4.23;;
15603;SDS011;7902;49.042;9.092;2023-11-19T00:32:31;13.70;;;3.93;;
15603;SDS011;7902;49.042;9.092;2023-11-19T00:34:58;19.57;;;4.70;;
15603;SDS011;7902;49.042;9.092;2023-11-19T00:37:24;16.20;;;4.23;;
15603;SDS011;7902;49.042;9.092;2023-11-19T00:39:49;17.80;;;4.60;;
15603;SDS011;7902;49.042;9.092;2023-11-19T00:42:17;15.20;;;4.20;;
15603;SDS011;7902;49.042;9.092;2023-11-19T00:44:43;14.53;;;4.17;;
15603;SDS011;7902;49.042;9.092;2023-11-19T00:47:09;14.30;;;3.97;;
15603;SDS011;7902;49.042;9.092;2023-11-19T00:49:35;16.20;;;4.10;;
15603;SDS011;7902;49.042;9.092;2023-11-19T00:52:01;14.80;;;4.37;;
15603;SDS011;7902;49.042;9.092;2023-11-19T00:54:27;14.53;;;3.70;;
15603;SDS011;7902;49.042;9.092;2023-11-19T00:56:53;18.10;;;3.50;;
15603;SDS011;7902;49.042;9.092;2023-11-19T00:59:19;14.07;;;3.70;;
15603;SDS011;7902;49.042;9.092;2023-11-19T01:01:45;15.03;;;3.67;;
15603;SDS011;7902;49.042;9.092;2023-11-19T01:04:14;13.43;;;2.53;;
15603;SDS011;7902;49.042;9.092;2023-11-19T01:06:40;18.20;;;5.90;;
15603;SDS011;7902;49.042;9.092;2023-11-19T01:09:07;23.60;;;4.20;;
15603;SDS011;7902;49.042;9.092;2023-11-19T01:11:34;16.83;;;4.27;;
15603;SDS011;7902;49.042;9.092;2023-11-19T01:14:00;13.30;;;3.90;;
15603;SDS011;7902;49.042;9.092;2023-11-19T01:16:26;16.97;;;4.00;;
15603;SDS011;7902;49.042;9.092;2023-11-19T01:18:53;14.33;;;2.80;;
15603;SDS011;7902;49.042;9.092;2023-11-19T01:21:20;12.33;;;2.57;;
15603;SDS011;7902;49.042;9.092;2023-11-19T01:23:45;13.13;;;3.17;;
15603;SDS011;7902;49.042;9.092;2023-11-19T01:26:12;14.50;;;3.30;;
15603;SDS011;7902;49.042;9.092;2023-11-19T01:28:38;14.00;;;3.70;;
15603;SDS011;7902;49.042;9.092;2023-11-19T01:31:05;12.50;;;2.97;;
15603;SDS011;7902;49.042;9.092;2023-11-19T01:33:35;13.23;;;2.70;;
15603;SDS011;7902;49.042;9.092;2023-11-19T01:36:01;13.10;;;3.40;;
15603;SDS011;7902;49.042;9.092;2023-11-19T01:38:28;11.90;;;2.87;;
15603;SDS011;7902;49.042;9.092;2023-11-19T01:40:57;14.07;;;3.40;;
15603;SDS011;7902;49.042;9.092;2023-11-19T01:43:36;13.00;;;2.93;;
15603;SDS011;7902;49.042;9.092;2023-11-19T01:46:04;14.30;;;3.87;;
15603;SDS011;7902;49.042;9.092;2023-11-19T01:48:33;22.33;;;9.07;;
15603;SDS011;7902;49.042;9.092;2023-11-19T01:51:01;15.30;;;4.80;;
15603;SDS011;7902;49.042;9.092;2023-11-19T01:53:29;13.07;;;3.47;;
15603;SDS011;7902;49.042;9.092;2023-11-19T01:55:56;13.33;;;3.67;;
15603;SDS011;7902;49.042;9.092;2023-11-19T01:58:22;11.70;;;2.70;;
15603;SDS011;7902;49.042;9.092;2023-11-19T02:00:48;13.10;;;3.40;;
15603;SDS011;7902;49.042;9.092;2023-11-19T02:03:14;14.80;;;3.50;;
15603;SDS011;7902;49.042;9.092;2023-11-19T02:05:40;13.93;;;2.87;;
15603;SDS011;7902;49.042;9.092;2023-11-19T02:08:06;14.47;;;3.40;;
15603;SDS011;7902;49.042;9.092;2023-11-19T02:10:33;13.30;;;3.50;;
15603;SDS011;7902;49.042;9.092;2023-11-19T02:12:59;13.73;;;3.20;;
15603;SDS011;7902;49.042;9.092;2023-11-19T02:15:26;14.10;;;3.27;;
15603;SDS011;7902;49.042;9.092;2023-11-19T02:17:52;14.27;;;4.20;;
15603;SDS011;7902;49.042;9.092;2023-11-19T02:20:18;13.73;;;3.83;;
15603;SDS011;7902;49.042;9.092;2023-11-19T02:22:46;15.07;;;4.33;;
15603;SDS011;7902;49.042;9.092;2023-11-19T02:25:30;16.83;;;4.67;;
15603;SDS011;7902;49.042;9.092;2023-11-19T02:27:58;15.00;;;4.00;;
15603;SDS011;7902;49.042;9.092;2023-11-19T02:30:25;15.30;;;3.80;;
15603;SDS011;7902;49.042;9.092;2023-11-19T02:32:54;14.37;;;3.80;;
15603;SDS011;7902;49.042;9.092;2023-11-19T02:35:26;15.40;;;4.00;;
15603;SDS011;7902;49.042;9.092;2023-11-19T02:37:52;15.43;;;4.63;;
15603;SDS011;7902;49.042;9.092;2023-11-19T02:40:20;15.77;;;4.63;;
15603;SDS011;7902;49.042;9.092;2023-11-19T02:42:49;15.73;;;4.93;;
15603;SDS011;7902;49.042;9.092;2023-11-19T02:45:16;15.60;;;4.30;;
15603;SDS011;7902;49.042;9.092;2023-11-19T02:47:42;14.73;;;4.43;;
15603;SDS011;7902;49.042;9.092;2023-11-19T02:50:09;14.30;;;4.37;;
15603;SDS011;7902;49.042;9.092;2023-11-19T02:52:42;13.20;;;3.77;;
15603;SDS011;7902;49.042;9.092;2023-11-19T02:55:10;13.77;;;3.87;;
15603;SDS011;7902;49.042;9.092;2023-11-19T02:57:38;15.53;;;5.30;;
15603;SDS011;7902;49.042;9.092;2023-11-19T03:02:41;15.90;;;5.07;;
15603;SDS011;7902;49.042;9.092;2023-11-19T03:05:14;16.97;;;5.70;;
15603;SDS011;7902;49.042;9.092;2023-11-19T03:07:42;17.60;;;5.23;;
15603;SDS011;7902;49.042;9.092;2023-11-19T03:10:12;17.43;;;5.23;;
15603;SDS011;7902;49.042;9.092;2023-11-19T03:12:41;25.60;;;9.40;;
15603;SDS011;7902;49.042;9.092;2023-11-19T03:15:09;25.97;;;9.10;;
15603;SDS011;7902;49.042;9.092;2023-11-19T03:17:38;16.73;;;5.30;;
15603;SDS011;7902;49.042;9.092;2023-11-19T03:20:05;15.13;;;4.60;;
15603;SDS011;7902;49.042;9.092;2023-11-19T03:22:32;17.37;;;4.47;;
15603;SDS011;7902;49.042;9.092;2023-11-19T03:25:01;16.00;;;4.87;;
15603;SDS011;7902;49.042;9.092;2023-11-19T03:27:27;16.10;;;5.00;;
15603;SDS011;7902;49.042;9.092;2023-11-19T03:29:53;17.07;;;5.90;;
15603;SDS011;7902;49.042;9.092;2023-11-19T03:32:19;16.97;;;4.63;;
15603;SDS011;7902;49.042;9.092;2023-11-19T03:34:45;16.87;;;4.73;;
15603;SDS011;7902;49.042;9.092;2023-11-19T03:37:11;14.80;;;4.13;;
15603;SDS011;7902;49.042;9.092;2023-11-19T03:39:38;20.57;;;5.17;;
15603;SDS011;7902;49.042;9.092;2023-11-19T03:42:04;15.60;;;4.17;;
15603;SDS011;7902;49.042;9.092;2023-11-19T03:44:30;12.30;;;3.70;;
15603;SDS011;7902;49.042;9.092;2023-11-19T03:46:56;14.93;;;4.83;;
15603;SDS011;7902;49.042;9.092;2023-11-19T03:49:21;14.73;;;4.30;;
15603;SDS011;7902;49.042;9.092;2023-11-19T03:51:49;12.53;;;3.40;;
15603;SDS011;7902;49.042;9.092;2023-11-19T03:54:15;14.57;;;4.73;;
15603;SDS011;7902;49.042;9.092;2023-11-19T03:56:41;12.70;;;3.30;;
15603;SDS011;7902;49.042;9.092;2023-11-19T03:59:07;11.50;;;3.03;;
15603;SDS011;7902;49.042;9.092;2023-11-19T04:01:35;14.30;;;2.87;;
15603;SDS011;7902;49.042;9.092;2023-11-19T04:04:02;11.80;;;2.93;;
15603;SDS011;7902;49.042;9.092;2023-11-19T04:06:28;12.17;;;2.60;;
15603;SDS011;7902;49.042;9.092;2023-11-19T04:08:54;11.30;;;2.40;;
15603;SDS011;7902;49.042;9.092;2023-11-19T04:11:21;12.47;;;3.10;;
15603;SDS011;7902;49.042;9.092;2023-11-19T04:13:47;11.97;;;2.30;;
15603;SDS011;7902;49.042;9.092;2023-11-19T04:16:13;12.03;;;2.90;;
15603;SDS011;7902;49.042;9.092;2023-11-19T04:18:40;11.77;;;2.30;;
15603;SDS011;7902;49.042;9.092;2023-11-19T04:21:06;14.43;;;2.47;;
15603;SDS011;7902;49.042;9.092;2023-11-19T04:23:33;11.57;;;2.10;;
15603;SDS011;7902;49.042;9.092;2023-11-19T04:26:01;12.47;;;2.50;;
15603;SDS011;7902;49.042;9.092;2023-11-19T04:28:27;10.87;;;2.30;;
15603;SDS011;7902;49.042;9.092;2023-11-19T04:30:53;11.03;;;2.20;;
15603;SDS011;7902;49.042;9.092;2023-11-19T04:33:20;13.17;;;1.87;;
15603;SDS011;7902;49.042;9.092;2023-11-19T04:35:46;10.57;;;1.63;;
15603;SDS011;7902;49.042;9.092;2023-11-19T04:38:11;14.90;;;0.97;;
15603;SDS011;7902;49.042;9.092;2023-11-19T04:40:37;9.40;;;1.40;;
15603;SDS011;7902;49.042;9.092;2023-11-19T04:43:03;16.80;;;0.80;;
15603;SDS011;7902;49.042;9.092;2023-11-19T04:45:30;8.70;;;0.77;;
15603;SDS011;7902;49.042;9.092;2023-11-19T04:47:55;9.57;;;1.43;;
15603;SDS011;7902;49.042;9.092;2023-11-19T04:50:21;9.53;;;0.83;;
15603;SDS011;7902;49.042;9.092;2023-11-19T04:52:47;8.80;;;0.80;;
15603;SDS011;7902;49.042;9.092;2023-11-19T04:55:13;8.40;;;0.50;;
15603;SDS011;7902;49.042;9.092;2023-11-19T04:57:40;8.87;;;0.70;;
15603;SDS011;7902;49.042;9.092;2023-11-19T05:00:06;9.07;;;0.70;;
15603;SDS011;7902;49.042;9.092;2023-11-19T05:02:36;9.30;;;0.60;;
15603;SDS011;7902;49.042;9.092;2023-11-19T05:05:03;9.37;;;0.77;;
15603;SDS011;7902;49.042;9.092;2023-11-19T05:07:32;12.50;;;0.80;;
15603;SDS011;7902;49.042;9.092;2023-11-19T05:09:58;9.47;;;0.70;;
15603;SDS011;7902;49.042;9.092;2023-11-19T05:12:24;12.03;;;1.30;;
15603;SDS011;7902;49.042;9.092;2023-11-19T05:14:50;9.30;;;0.63;;
15603;SDS011;7902;49.042;9.092;2023-11-19T05:17:19;9.17;;;0.57;;
15603;SDS011;7902;49.042;9.092;2023-11-19T05:19:45;9.30;;;0.63;;
15603;SDS011;7902;49.042;9.092;2023-11-19T05:22:12;9.27;;;0.70;;
15603;SDS011;7902;49.042;9.092;2023-11-19T05:24:38;11.07;;;1.10;;
15603;SDS011;7902;49.042;9.092;2023-11-19T05:27:05;10.63;;;0.60;;
15603;SDS011;7902;49.042;9.092;2023-11-19T05:29:32;9.40;;;0.60;;
15603;SDS011;7902;49.042;9.092;2023-11-19T05:31:58;9.40;;;0.63;;
15603;SDS011;7902;49.042;9.092;2023-11-19T05:34:24;9.60;;;0.60;;
15603;SDS011;7902;49.042;9.092;2023-11-19T05:36:50;10.03;;;0.70;;
15603;SDS011;7902;49.042;9.092;2023-11-19T05:39:16;9.80;;;0.70;;
15603;SDS011;7902;49.042;9.092;2023-11-19T05:41:44;10.63;;;0.60;;
15603;SDS011;7902;49.042;9.092;2023-11-19T05:44:10;11.27;;;0.80;;
15603;SDS011;7902;49.042;9.092;2023-11-19T05:46:36;10.00;;;0.80;;
15603;SDS011;7902;49.042;9.092;2023-11-19T05:49:05;10.20;;;0.70;;
15603;SDS011;7902;49.042;9.092;2023-11-19T05:51:31;9.70;;;0.60;;
15603;SDS011;7902;49.042;9.092;2023-11-19T05:53:57;10.20;;;0.70;;
15603;SDS011;7902;49.042;9.092;2023-11-19T05:56:23;11.30;;;0.70;;
15603;SDS011;7902;49.042;9.092;2023-11-19T05:58:50;10.30;;;0.80;;
15603;SDS011;7902;49.042;9.092;2023-11-19T06:01:16;9.83;;;0.67;;
15603;SDS011;7902;49.042;9.092;2023-11-19T06:03:42;10.90;;;0.70;;
15603;SDS011;7902;49.042;9.092;2023-11-19T06:06:08;11.00;;;0.80;;
15603;SDS011;7902;49.042;9.092;2023-11-19T06:08:35;10.10;;;0.70;;
15603;SDS011;7902;49.042;9.092;2023-11-19T06:11:01;12.57;;;0.77;;
15603;SDS011;7902;49.042;9.092;2023-11-19T06:13:27;10.53;;;0.93;;
15603;SDS011;7902;49.042;9.092;2023-11-19T06:15:53;10.40;;;0.70;;
15603;SDS011;7902;49.042;9.092;2023-11-19T06:18:18;11.60;;;0.80;;
15603;SDS011;7902;49.042;9.092;2023-11-19T06:20:45;10.40;;;0.70;;
15603;SDS011;7902;49.042;9.092;2023-11-19T06:23:11;11.83;;;0.90;;
15603;SDS011;7902;49.042;9.092;2023-11-19T06:25:37;11.07;;;0.70;;
15603;SDS011;7902;49.042;9.092;2023-11-19T06:28:03;10.67;;;0.70;;
15603;SDS011;7902;49.042;9.092;2023-11-19T06:30:30;11.30;;;0.77;;
15603;SDS011;7902;49.042;9.092;2023-11-19T06:32:58;12.77;;;1.17;;
15603;SDS011;7902;49.042;9.092;2023-11-19T06:35:24;15.80;;;0.77;;
15603;SDS011;7902;49.042;9.092;2023-11-19T06:37:50;11.40;;;0.90;;
15603;SDS011;7902;49.042;9.092;2023-11-19T06:40:16;12.70;;;1.10;;
15603;SDS011;7902;49.042;9.092;2023-11-19T06:42:42;10.30;;;0.63;;
15603;SDS011;7902;49.042;9.092;2023-11-19T06:45:08;11.20;;;0.70;;
15603;SDS011;7902;49.042;9.092;2023-11-19T06:47:34;11.30;;;0.90;;
15603;SDS011;7902;49.042;9.092;2023-11-19T06:50:01;10.60;;;0.67;;
15603;SDS011;7902;49.042;9.092;2023-11-19T06:52:27;10.73;;;0.73;;
15603;SDS011;7902;49.042;9.092;2023-11-19T06:54:52;10.40;;;0.60;;
15603;SDS011;7902;49.042;9.092;2023-11-19T06:57:18;10.40;;;0.70;;
15603;SDS011;7902;49.042;9.092;2023-11-19T06:59:46;13.90;;;1.00;;
15603;SDS011;7902;49.042;9.092;2023-11-19T07:02:11;10.00;;;0.60;;
15603;SDS011;7902;49.042;9.092;2023-11-19T07:04:37;11.00;;;0.90;;
15603;SDS011;7902;49.042;9.092;2023-11-19T07:07:03;11.10;;;0.80;;
15603;SDS011;7902;49.042;9.092;2023-11-19T07:09:31;10.47;;;0.77;;
15603;SDS011;7902;49.042;9.092;2023-11-19T07:11:56;12.20;;;0.70;;
15603;SDS011;7902;49.042;9.092;2023-11-19T07:14:22;10.60;;;0.70;;
15603;SDS011;7902;49.042;9.092;2023-11-19T07:16:49;10.40;;;0.80;;
15603;SDS011;7902;49.042;9.092;2023-11-19T07:19:15;10.17;;;0.60;;
15603;SDS011;7902;49.042;9.092;2023-11-19T07:21:42;11.50;;;0.80;;
15603;SDS011;7902;49.042;9.092;2023-11-19T07:24:09;10.07;;;0.57;;
15603;SDS011;7902;49.042;9.092;2023-11-19T07:26:39;14.00;;;0.80;;
15603;SDS011;7902;49.042;9.092;2023-11-19T07:29:08;10.63;;;0.70;;
15603;SDS011;7902;49.042;9.092;2023-11-19T07:31:34;10.90;;;0.80;;
15603;SDS011;7902;49.042;9.092;2023-11-19T07:33:59;10.40;;;0.70;;
15603;SDS011;7902;49.042;9.092;2023-11-19T07:36:25;10.40;;;0.70;;
15603;SDS011;7902;49.042;9.092;2023-11-19T07:38:51;11.33;;;0.90;;
15603;SDS011;7902;49.042;9.092;2023-11-19T07:41:17;12.27;;;0.90;;
15603;SDS011;7902;49.042;9.092;2023-11-19T07:43:43;15.30;;;1.10;;
15603;SDS011;7902;49.042;9.092;2023-11-19T07:46:10;11.53;;;0.80;;
15603;SDS011;7902;49.042;9.092;2023-11-19T07:48:38;10.60;;;0.70;;
15603;SDS011;7902;49.042;9.092;2023-11-19T07:51:05;11.13;;;0.73;;
15603;SDS011;7902;49.042;9.092;2023-11-19T07:53:31;10.80;;;0.70;;
15603;SDS011;7902;49.042;9.092;2023-11-19T07:55:58;11.77;;;1.03;;
15603;SDS011;7902;49.042;9.092;2023-11-19T07:58:27;11.30;;;0.70;;
15603;SDS011;7902;49.042;9.092;2023-11-19T08:00:53;21.90;;;1.00;;
15603;SDS011;7902;49.042;9.092;2023-11-19T08:03:18;11.20;;;0.60;;
15603;SDS011;7902;49.042;9.092;2023-11-19T08:05:45;11.30;;;0.70;;
15603;SDS011;7902;49.042;9.092;2023-11-19T08:08:11;12.70;;;0.90;;
15603;SDS011;7902;49.042;9.092;2023-11-19T08:10:37;11.53;;;0.80;;
15603;SDS011;7902;49.042;9.092;2023-11-19T08:13:05;11.43;;;0.90;;
15603;SDS011;7902;49.042;9.092;2023-11-19T08:15:31;11.60;;;0.67;;
15603;SDS011;7902;49.042;9.092;2023-11-19T08:17:57;13.40;;;1.47;;
15603;SDS011;7902;49.042;9.092;2023-11-19T08:20:23;16.20;;;3.10;;
15603;SDS011;7902;49.042;9.092;2023-11-19T08:22:49;15.93;;;1.93;;
15603;SDS011;7902;49.042;9.092;2023-11-19T08:25:15;14.03;;;1.97;;
15603;SDS011;7902;49.042;9.092;2023-11-19T08:27:41;15.00;;;2.27;;
15603;SDS011;7902;49.042;9.092;2023-11-19T08:30:08;20.83;;;4.50;;
15603;SDS011;7902;49.042;9.092;2023-11-19T08:32:34;12.33;;;1.20;;
15603;SDS011;7902;49.042;9.092;2023-11-19T08:35:01;12.57;;;1.10;;
15603;SDS011;7902;49.042;9.092;2023-11-19T08:37:27;10.87;;;0.70;;
15603;SDS011;7902;49.042;9.092;2023-11-19T08:39:53;11.57;;;0.80;;
15603;SDS011;7902;49.042;9.092;2023-11-19T08:42:19;15.23;;;0.90;;
15603;SDS011;7902;49.042;9.092;2023-11-19T08:44:51;12.10;;;0.80;;
15603;SDS011;7902;49.042;9.092;2023-11-19T08:47:19;11.73;;;0.83;;
15603;SDS011;7902;49.042;9.092;2023-11-19T08:49:45;11.30;;;0.80;;
15603;SDS011;7902;49.042;9.092;2023-11-19T08:52:11;15.00;;;0.80;;
15603;SDS011;7902;49.042;9.092;2023-11-19T08:54:37;11.93;;;0.70;;
15603;SDS011;7902;49.042;9.092;2023-11-19T08:57:03;11.30;;;0.70;;
15603;SDS011;7902;49.042;9.092;2023-11-19T08:59:30;11.50;;;0.80;;
15603;SDS011;7902;49.042;9.092;2023-11-19T09:01:56;11.10;;;0.80;;
15603;SDS011;7902;49.042;9.092;2023-11-19T09:04:21;11.13;;;0.70;;
15603;SDS011;7902;49.042;9.092;2023-11-19T09:06:50;13.33;;;0.90;;
15603;SDS011;7902;49.042;9.092;2023-11-19T09:09:16;13.97;;;0.90;;
15603;SDS011;7902;49.042;9.092;2023-11-19T09:11:42;14.40;;;0.80;;
15603;SDS011;7902;49.042;9.092;2023-11-19T09:14:08;12.17;;;0.90;;
15603;SDS011;7902;49.042;9.092;2023-11-19T09:16:34;12.87;;;1.13;;
15603;SDS011;7902;49.042;9.092;2023-11-19T09:19:00;11.60;;;0.80;;
15603;SDS011;7902;49.042;9.092;2023-11-19T09:21:28;15.67;;;1.20;;
15603;SDS011;7902;49.042;9.092;2023-11-19T09:23:57;12.90;;;1.53;;
15603;SDS011;7902;49.042;9.092;2023-11-19T09:26:23;13.90;;;1.93;;
15603;SDS011;7902;49.042;9.092;2023-11-19T09:28:48;16.17;;;2.60;;
15603;SDS011;7902;49.042;9.092;2023-11-19T09:31:15;18.13;;;3.60;;
15603;SDS011;7902;49.042;9.092;2023-11-19T09:33:43;16.33;;;1.27;;
15603;SDS011;7902;49.042;9.092;2023-11-19T09:36:13;12.20;;;1.00;;
15603;SDS011;7902;49.042;9.092;2023-11-19T09:38:39;14.20;;;1.40;;
15603;SDS011;7902;49.042;9.092;2023-11-19T09:41:06;12.67;;;0.80;;
15603;SDS011;7902;49.042;9.092;2023-11-19T09:43:35;13.00;;;1.00;;
15603;SDS011;7902;49.042;9.092;2023-11-19T09:46:05;12.17;;;0.80;;
15603;SDS011;7902;49.042;9.092;2023-11-19T09:48:33;15.60;;;1.10;;
15603;SDS011;7902;49.042;9.092;2023-11-19T09:51:01;14.27;;;0.83;;
15603;SDS011;7902;49.042;9.092;2023-11-19T09:53:27;14.87;;;1.00;;
15603;SDS011;7902;49.042;9.092;2023-11-19T09:55:53;13.03;;;1.10;;
15603;SDS011;7902;49.042;9.092;2023-11-19T09:58:21;12.13;;;0.80;;
15603;SDS011;7902;49.042;9.092;2023-11-19T10:00:48;13.37;;;0.97;;
15603;SDS011;7902;49.042;9.092;2023-11-19T10:03:15;12.50;;;0.70;;
15603;SDS011;7902;49.042;9.092;2023-11-19T10:05:41;12.67;;;0.90;;
15603;SDS011;7902;49.042;9.092;2023-11-19T10:08:07;15.90;;;1.20;;
15603;SDS011;7902;49.042;9.092;2023-11-19T10:10:34;13.57;;;0.70;;
15603;SDS011;7902;49.042;9.092;2023-11-19T10:13:00;15.40;;;1.07;;
15603;SDS011;7902;49.042;9.092;2023-11-19T10:15:26;12.50;;;0.90;;
15603;SDS011;7902;49.042;9.092;2023-11-19T10:17:55;13.53;;;0.97;;
15603;SDS011;7902;49.042;9.092;2023-11-19T10:20:22;14.43;;;1.00;;
15603;SDS011;7902;49.042;9.092;2023-11-19T10:22:48;12.60;;;0.70;;
15603;SDS011;7902;49.042;9.092;2023-11-19T10:25:27;16.00;;;0.97;;
15603;SDS011;7902;49.042;9.092;2023-11-19T10:27:54;13.70;;;1.10;;
15603;SDS011;7902;49.042;9.092;2023-11-19T10:33:02;22.60;;;1.23;;
15603;SDS011;7902;49.042;9.092;2023-11-19T10:35:28;15.40;;;1.33;;
15603;SDS011;7902;49.042;9.092;2023-11-19T10:37:54;16.17;;;1.37;;
15603;SDS011;7902;49.042;9.092;2023-11-19T10:40:20;16.77;;;1.37;;
15603;SDS011;7902;49.042;9.092;2023-11-19T10:42:46;14.40;;;0.90;;
15603;SDS011;7902;49.042;9.092;2023-11-19T10:45:21;16.93;;;1.87;;
15603;SDS011;7902;49.042;9.092;2023-11-19T10:47:50;13.43;;;1.20;;
15603;SDS011;7902;49.042;9.092;2023-11-19T10:50:17;12.93;;;1.17;;
15603;SDS011;7902;49.042;9.092;2023-11-19T10:52:43;19.73;;;1.00;;
15603;SDS011;7902;49.042;9.092;2023-11-19T10:55:11;13.23;;;0.80;;
15603;SDS011;7902;49.042;9.092;2023-11-19T10:57:42;13.60;;;0.90;;
15603;SDS011;7902;49.042;9.092;2023-11-19T11:00:12;18.63;;;1.33;;
15603;SDS011;7902;49.042;9.092;2023-11-19T11:02:45;13.73;;;1.07;;
15603;SDS011;7902;49.042;9.092;2023-11-19T11:05:14;14.50;;;1.53;;
15603;SDS011;7902;49.042;9.092;2023-11-19T11:07:40;16.90;;;2.50;;
15603;SDS011;7902;49.042;9.092;2023-11-19T11:10:07;13.90;;;1.30;;
15603;SDS011;7902;49.042;9.092;2023-11-19T11:12:38;16.20;;;1.63;;
15603;SDS011;7902;49.042;9.092;2023-11-19T11:15:07;13.67;;;1.30;;
15603;SDS011;7902;49.042;9.092;2023-11-19T11:17:35;15.40;;;0.97;;
15603;SDS011;7902;49.042;9.092;2023-11-19T11:20:02;18.07;;;1.43;;
15603;SDS011;7902;49.042;9.092;2023-11-19T11:22:29;14.27;;;1.27;;
15603;SDS011;7902;49.042;9.092;2023-11-19T11:25:19;13.47;;;0.93;;
15603;SDS011;7902;49.042;9.092;2023-11-19T11:27:57;13.40;;;0.90;;
15603;SDS011;7902;49.042;9.092;2023-11-19T11:36:06;14.90;;;1.20;;
15603;SDS011;7902;49.042;9.092;2023-11-19T11:38:39;14.40;;;0.80;;
15603;SDS011;7902;49.042;9.092;2023-11-19T11:43:47;14.40;;;0.90;;
15603;SDS011;7902;49.042;9.092;2023-11-19T11:48:58;16.00;;;0.90;;
15603;SDS011;7902;49.042;9.092;2023-11-19T11:54:10;13.80;;;1.30;;
15603;SDS011;7902;49.042;9.092;2023-11-19T11:57:06;14.27;;;1.10;;
15603;SDS011;7902;49.042;9.092;2023-11-19T12:02:08;13.73;;;0.90;;
15603;SDS011;7902;49.042;9.092;2023-11-19T12:04:35;13.70;;;0.90;;
15603;SDS011;7902;49.042;9.092;2023-11-19T12:09:42;13.73;;;0.77;;
15603;SDS011;7902;49.042;9.092;2023-11-19T12:12:23;16.60;;;0.90;;
15603;SDS011;7902;49.042;9.092;2023-11-19T12:22:28;14.50;;;1.40;;
15603;SDS011;7902;49.042;9.092;2023-11-19T12:24:54;21.73;;;1.40;;
15603;SDS011;7902;49.042;9.092;2023-11-19T12:27:20;16.93;;;1.17;;
15603;SDS011;7902;49.042;9.092;2023-11-19T12:29:48;14.87;;;1.03;;
15603;SDS011;7902;49.042;9.092;2023-11-19T12:32:14;14.80;;;0.90;;
15603;SDS011;7902;49.042;9.092;2023-11-19T12:34:40;14.97;;;1.10;;
15603;SDS011;7902;49.042;9.092;2023-11-19T12:37:06;13.97;;;0.97;;
15603;SDS011;7902;49.042;9.092;2023-11-19T12:39:32;16.00;;;1.17;;
15603;SDS011;7902;49.042;9.092;2023-11-19T12:41:58;13.30;;;0.83;;
15603;SDS011;7902;49.042;9.092;2023-11-19T12:44:26;19.43;;;1.00;;
15603;SDS011;7902;49.042;9.092;2023-11-19T12:47:26;16.90;;;1.33;;
15603;SDS011;7902;49.042;9.092;2023-11-19T12:49:54;14.17;;;0.83;;
15603;SDS011;7902;49.042;9.092;2023-11-19T12:52:21;13.00;;;0.70;;
15603;SDS011;7902;49.042;9.092;2023-11-19T12:54:49;14.07;;;1.10;;
15603;SDS011;7902;49.042;9.092;2023-11-19T12:57:15;16.80;;;1.20;;
15603;SDS011;7902;49.042;9.092;2023-11-19T12:59:41;15.17;;;1.50;;
15603;SDS011;7902;49.042;9.092;2023-11-19T13:02:08;14.90;;;1.20;;
15603;SDS011;7902;49.042;9.092;2023-11-19T13:04:34;14.80;;;1.10;;
15603;SDS011;7902;49.042;9.092;2023-11-19T13:07:00;23.33;;;0.97;;
15603;SDS011;7902;49.042;9.092;2023-11-19T13:09:27;15.20;;;1.10;;
15603;SDS011;7902;49.042;9.092;2023-11-19T13:11:54;14.37;;;1.07;;
15603;SDS011;7902;49.042;9.092;2023-11-19T13:14:21;14.80;;;0.90;;
15603;SDS011;7902;49.042;9.092;2023-11-19T13:16:48;13.70;;;1.00;;
15603;SDS011;7902;49.042;9.092;2023-11-19T13:19:15;15.30;;;1.00;;
15603;SDS011;7902;49.042;9.092;2023-11-19T13:21:45;15.00;;;1.10;;
15603;SDS011;7902;49.042;9.092;2023-11-19T13:24:13;14.47;;;1.40;;
15603;SDS011;7902;49.042;9.092;2023-11-19T13:26:39;16.07;;;1.10;;
15603;SDS011;7902;49.042;9.092;2023-11-19T13:29:05;13.67;;;1.00;;
15603;SDS011;7902;49.042;9.092;2023-11-19T13:31:31;14.17;;;1.27;;
15603;SDS011;7902;49.042;9.092;2023-11-19T13:33:57;16.10;;;1.53;;
15603;SDS011;7902;49.042;9.092;2023-11-19T13:36:24;18.43;;;1.27;;
15603;SDS011;7902;49.042;9.092;2023-11-19T13:38:51;15.97;;;1.43;;
15603;SDS011;7902;49.042;9.092;2023-11-19T13:41:17;32.60;;;1.27;;
15603;SDS011;7902;49.042;9.092;2023-11-19T13:43:43;14.83;;;1.20;;
15603;SDS011;7902;49.042;9.092;2023-11-19T13:46:09;13.13;;;0.90;;
15603;SDS011;7902;49.042;9.092;2023-11-19T13:48:38;16.00;;;1.90;;
15603;SDS011;7902;49.042;9.092;2023-11-19T13:51:04;15.23;;;1.00;;
15603;SDS011;7902;49.042;9.092;2023-11-19T13:53:31;16.50;;;0.90;;
15603;SDS011;7902;49.042;9.092;2023-11-19T13:55:56;16.07;;;2.27;;
15603;SDS011;7902;49.042;9.092;2023-11-19T13:58:22;17.40;;;1.10;;
15603;SDS011;7902;49.042;9.092;2023-11-19T14:00:48;16.60;;;0.83;;
15603;SDS011;7902;49.042;9.092;2023-11-19T14:03:14;14.33;;;0.83;;
15603;SDS011;7902;49.042;9.092;2023-11-19T14:05:40;13.47;;;0.77;;
15603;SDS011;7902;49.042;9.092;2023-11-19T14:08:07;14.20;;;0.80;;
15603;SDS011;7902;49.042;9.092;2023-11-19T14:10:39;14.87;;;1.43;;
15603;SDS011;7902;49.042;9.092;2023-11-19T14:13:08;15.53;;;1.30;;
15603;SDS011;7902;49.042;9.092;2023-11-19T14:15:34;18.43;;;0.90;;
15603;SDS011;7902;49.042;9.092;2023-11-19T14:18:01;14.43;;;1.00;;
15603;SDS011;7902;49.042;9.092;2023-11-19T14:20:28;16.60;;;0.87;;
15603;SDS011;7902;49.042;9.092;2023-11-19T14:22:54;14.80;;;1.00;;
15603;SDS011;7902;49.042;9.092;2023-11-19T14:25:20;13.93;;;1.00;;
15603;SDS011;7902;49.042;9.092;2023-11-19T14:27:47;14.80;;;0.80;;
15603;SDS011;7902;49.042;9.092;2023-11-19T14:30:13;13.80;;;0.90;;
15603;SDS011;7902;49.042;9.092;2023-11-19T14:32:41;15.20;;;1.07;;
15603;SDS011;7902;49.042;9.092;2023-11-19T14:35:11;17.27;;;1.20;;
15603;SDS011;7902;49.042;9.092;2023-11-19T14:37:40;19.40;;;1.23;;
15603;SDS011;7902;49.042;9.092;2023-11-19T14:40:07;14.20;;;1.10;;
15603;SDS011;7902;49.042;9.092;2023-11-19T14:42:37;14.63;;;1.03;;
15603;SDS011;7902;49.042;9.092;2023-11-19T14:45:04;15.53;;;1.00;;
15603;SDS011;7902;49.042;9.092;2023-11-19T14:47:31;16.10;;;1.87;;
15603;SDS011;7902;49.042;9.092;2023-11-19T14:49:57;14.70;;;1.00;;
15603;SDS011;7902;49.042;9.092;2023-11-19T14:52:23;17.00;;;1.40;;
15603;SDS011;7902;49.042;9.092;2023-11-19T14:54:48;18.30;;;1.37;;
15603;SDS011;7902;49.042;9.092;2023-11-19T14:57:16;17.20;;;1.10;;
15603;SDS011;7902;49.042;9.092;2023-11-19T14:59:42;13.97;;;0.90;;
15603;SDS011;7902;49.042;9.092;2023-11-19T15:02:08;15.27;;;1.37;;
15603;SDS011;7902;49.042;9.092;2023-11-19T15:04:34;13.87;;;0.90;;
15603;SDS011;7902;49.042;9.092;2023-11-19T15:07:00;13.97;;;1.03;;
15603;SDS011;7902;49.042;9.092;2023-11-19T15:09:26;15.07;;;1.30;;
15603;SDS011;7902;49.042;9.092;2023-11-19T15:11:55;14.20;;;1.07;;
15603;SDS011;7902;49.042;9.092;2023-11-19T15:14:21;18.00;;;1.33;;
15603;SDS011;7902;49.042;9.092;2023-11-19T15:16:47;16.97;;;1.40;;
15603;SDS011;7902;49.042;9.092;2023-11-19T15:19:14;18.07;;;1.70;;